createdAt,value
2023-04-15T00:05:02.997Z,50.09
2023-04-15T00:10:06.571Z,48.75
2023-04-15T00:15:10.413Z,47.73
2023-04-15T00:20:13.598Z,48.12
2023-04-15T00:25:16.972Z,49.94
2023-04-15T00:30:20.055Z,50.85
2023-04-15T00:35:24.467Z,51.37
2023-04-15T00:40:28.123Z,52.31
2023-04-15T00:45:31.155Z,53.91
2023-04-15T00:50:34.636Z,54.78
2023-04-15T00:55:38.319Z,55.41
2023-04-15T01:00:42.827Z,56.20
2023-04-15T01:05:47.060Z,54.76
2023-04-15T01:10:50.224Z,54.00
2023-04-15T01:15:54.124Z,55.21
2023-04-15T01:20:57.587Z,54.91
2023-04-15T01:26:00.679Z,55.08
2023-04-15T01:31:11.068Z,55.50
2023-04-15T01:36:18.359Z,53.48
2023-04-15T01:41:28.956Z,54.35
2023-04-15T01:46:32.564Z,54.37
2023-04-15T01:51:36.503Z,55.46
2023-04-15T01:56:40.054Z,56.01
2023-04-15T02:01:43.086Z,57.28
2023-04-15T02:06:46.625Z,57.47
2023-04-15T02:11:53.267Z,57.53
2023-04-15T02:16:56.759Z,58.23
2023-04-15T02:22:00.533Z,58.09
2023-04-15T02:27:03.982Z,58.08
2023-04-15T02:32:07.543Z,58.75
2023-04-15T02:37:15.314Z,57.74
2023-04-15T02:42:18.443Z,57.79
2023-04-15T02:47:21.644Z,57.24
2023-04-15T02:52:25.573Z,58.53
2023-04-15T02:57:29.802Z,60.40
2023-04-15T03:02:38.320Z,60.11
2023-04-15T03:07:41.579Z,59.25
2023-04-15T03:12:44.688Z,60.18
2023-04-15T03:17:52.468Z,61.60
2023-04-15T03:22:55.834Z,62.76
2023-04-15T03:28:01.718Z,63.71
2023-04-15T03:33:05.042Z,64.37
2023-04-15T03:38:08.612Z,65.72
2023-04-15T03:43:12.517Z,63.99
2023-04-15T03:48:18.122Z,61.88
2023-04-15T03:53:22.384Z,61.38
2023-04-15T03:58:26.120Z,61.99
2023-04-15T04:03:29.837Z,63.11
2023-04-15T04:08:33.495Z,62.69
2023-04-15T04:13:37.068Z,63.80
2023-04-15T04:18:40.557Z,63.91
2023-04-15T04:23:44.190Z,63.22
2023-04-15T04:28:47.860Z,62.36
2023-04-15T04:33:51.593Z,60.33
2023-04-15T04:38:55.363Z,61.07
2023-04-15T04:43:58.689Z,61.06
2023-04-15T04:49:02.553Z,61.82
2023-04-15T04:54:06.255Z,61.55
2023-04-15T04:59:10.403Z,62.64
2023-04-15T05:04:13.985Z,62.29
2023-04-15T05:09:17.916Z,61.96
2023-04-15T05:14:23.879Z,60.83
2023-04-15T05:19:27.427Z,60.58
2023-04-15T05:24:31.172Z,61.76
2023-04-15T05:29:35.933Z,62.56
2023-04-15T05:34:39.938Z,60.94
2023-04-15T05:39:43.461Z,60.61
2023-04-15T05:44:47.361Z,59.27
2023-04-15T05:49:51.215Z,59.83
2023-04-15T05:54:54.961Z,54.32
2023-04-15T05:59:58.295Z,52.76
2023-04-15T06:05:01.673Z,52.47
2023-04-15T06:10:06.173Z,53.21
2023-04-15T06:15:10.814Z,52.35
2023-04-15T06:20:14.534Z,56.77
2023-04-15T06:25:18.448Z,49.87
2023-04-15T06:30:23.971Z,47.54
2023-04-15T06:35:28.105Z,41.00
2023-04-15T06:40:32.199Z,47.79
2023-04-15T06:45:36.073Z,49.72
2023-04-15T06:50:40.017Z,49.99
2023-04-15T06:55:43.593Z,46.83
2023-04-15T07:00:48.230Z,49.50
2023-04-15T07:05:51.840Z,49.83
2023-04-15T07:10:55.450Z,47.29
2023-04-15T07:15:59.350Z,45.88
2023-04-15T07:21:03.036Z,43.32
2023-04-15T07:26:06.938Z,42.63
2023-04-15T07:31:10.142Z,44.22
2023-04-15T07:36:14.379Z,46.62
2023-04-15T07:41:18.206Z,43.83
2023-04-15T07:46:21.912Z,41.40
2023-04-15T07:51:25.971Z,40.73
2023-04-15T07:56:29.589Z,41.96
2023-04-15T08:01:33.954Z,41.53
2023-04-15T08:06:40.207Z,41.38
2023-04-15T08:11:43.892Z,41.80
2023-04-15T08:16:47.952Z,41.13
2023-04-15T08:21:52.543Z,40.19
2023-04-15T08:26:57.001Z,42.62
2023-04-15T08:32:02.040Z,40.58
2023-04-15T08:37:06.892Z,40.81
2023-04-15T08:42:18.822Z,43.58
2023-04-15T08:47:27.564Z,41.83
2023-04-15T08:52:32.533Z,40.52
2023-04-15T08:57:37.693Z,40.32
2023-04-15T09:02:41.914Z,39.33
2023-04-15T09:07:45.935Z,38.95
2023-04-15T09:12:49.024Z,40.12
2023-04-15T09:17:52.281Z,39.49
2023-04-15T09:22:55.937Z,41.71
2023-04-15T09:28:02.913Z,40.39
2023-04-15T09:33:08.735Z,40.10
2023-04-15T09:38:13.156Z,38.48
2023-04-15T09:43:17.910Z,39.12
2023-04-15T09:48:23.255Z,40.38
2023-04-15T09:53:28.107Z,41.45
2023-04-15T09:58:35.547Z,41.73
2023-04-15T10:03:42.782Z,43.12
2023-04-15T10:08:48.632Z,47.75
2023-04-15T10:13:52.256Z,55.60
2023-04-15T10:18:57.437Z,61.16
2023-04-15T10:24:04.494Z,61.28
2023-04-15T10:29:10.312Z,61.22
2023-04-15T10:34:16.071Z,55.69
2023-04-15T10:39:34.670Z,51.61
2023-04-15T10:44:39.808Z,48.99
2023-04-15T10:49:57.571Z,48.35
2023-04-15T10:55:26.337Z,46.03
2023-04-15T11:00:32.951Z,46.00
2023-04-15T11:05:42.375Z,46.69
2023-04-15T11:10:45.968Z,48.79
2023-04-15T11:15:50.719Z,58.62
2023-04-15T11:21:00.709Z,64.76
2023-04-15T11:26:09.899Z,69.19
2023-04-15T11:31:18.709Z,74.23
2023-04-15T11:36:22.447Z,77.60
2023-04-15T11:41:26.616Z,77.87
2023-04-15T11:46:34.341Z,77.57
2023-04-15T11:51:38.178Z,75.63
2023-04-15T11:56:41.769Z,73.62
2023-04-15T12:01:47.909Z,70.77
2023-04-15T12:06:51.660Z,73.71
2023-04-15T12:11:58.821Z,77.78
2023-04-15T12:17:05.829Z,75.72
2023-04-15T12:22:15.509Z,69.08
2023-04-15T12:27:19.230Z,67.70
2023-04-15T12:32:24.008Z,68.84
2023-04-15T12:37:28.207Z,74.26
2023-04-15T12:42:32.693Z,79.17
2023-04-15T12:47:37.230Z,80.67
2023-04-15T12:52:41.321Z,85.88
2023-04-15T12:57:45.678Z,85.14
2023-04-15T13:02:49.658Z,86.22
2023-04-15T13:07:53.501Z,87.52
2023-04-15T13:12:57.526Z,88.43
2023-04-15T13:18:02.100Z,85.37
2023-04-15T13:23:05.294Z,81.77
2023-04-15T13:28:09.448Z,84.70
2023-04-15T13:33:13.044Z,80.09
2023-04-15T13:38:16.310Z,78.65
2023-04-15T13:43:19.996Z,78.79
2023-04-15T13:48:24.273Z,83.11
2023-04-15T13:53:38.187Z,85.90
2023-04-15T13:58:43.173Z,81.81
2023-04-15T14:03:47.009Z,79.65
2023-04-15T14:08:50.181Z,76.14
2023-04-15T14:13:53.806Z,72.05
2023-04-15T14:18:58.474Z,68.80
2023-04-15T14:24:01.891Z,65.63
2023-04-15T14:29:06.091Z,65.29
2023-04-15T14:34:09.816Z,65.17
2023-04-15T14:39:14.975Z,66.75
2023-04-15T14:44:18.737Z,66.52
2023-04-15T14:49:23.183Z,66.67
2023-04-15T14:54:27.278Z,63.57
2023-04-15T14:59:31.071Z,63.36
2023-04-15T15:04:36.551Z,63.86
2023-04-15T15:09:39.994Z,64.57
2023-04-15T15:14:44.231Z,61.75
2023-04-15T15:19:47.372Z,62.16
2023-04-15T15:24:51.454Z,62.76
2023-04-15T15:29:54.630Z,61.72
2023-04-15T15:34:58.835Z,61.06
2023-04-15T15:40:05.134Z,61.29
2023-04-15T15:45:09.016Z,61.37
2023-04-15T15:50:14.884Z,62.37
2023-04-15T15:55:19.202Z,62.39
2023-04-15T16:00:23.802Z,63.44
2023-04-15T16:05:27.736Z,61.52
2023-04-15T16:10:31.795Z,61.72
2023-04-15T16:15:36.110Z,62.96
2023-04-15T16:20:39.917Z,63.97
2023-04-15T16:25:44.763Z,65.27
2023-04-15T16:30:48.063Z,64.56
2023-04-15T16:35:52.754Z,72.57
2023-04-15T16:41:00.758Z,73.43
2023-04-15T16:46:04.105Z,74.62
2023-04-15T16:51:07.810Z,73.24
2023-04-15T16:56:11.291Z,70.71
2023-04-15T17:01:15.714Z,70.99
2023-04-15T17:06:18.995Z,71.48
2023-04-15T17:11:22.560Z,71.52
2023-04-15T17:16:27.186Z,71.27
2023-04-15T17:21:32.054Z,66.78
2023-04-15T17:26:35.876Z,69.00
2023-04-15T17:31:39.890Z,70.14
2023-04-15T17:36:44.478Z,70.17
2023-04-15T17:41:48.753Z,69.95
2023-04-15T17:46:52.927Z,71.95
2023-04-15T17:51:56.624Z,72.84
2023-04-15T17:57:00.641Z,71.98
2023-04-15T18:02:04.558Z,73.25
2023-04-15T18:07:08.516Z,73.20
2023-04-15T18:12:12.354Z,73.57
2023-04-15T18:17:16.794Z,74.45
2023-04-15T18:22:21.386Z,74.52
2023-04-15T18:27:25.108Z,74.68
2023-04-15T18:32:31.924Z,75.15
2023-04-15T18:37:35.842Z,76.32
2023-04-15T18:42:39.427Z,77.60
2023-04-15T18:47:43.035Z,77.64
2023-04-15T18:52:46.563Z,78.26
2023-04-15T18:57:50.430Z,78.77
2023-04-15T19:02:55.105Z,79.00
2023-04-15T19:07:59.700Z,79.52
2023-04-15T19:13:04.610Z,79.50
2023-04-15T19:18:11.132Z,79.88
2023-04-15T19:23:15.915Z,79.51
2023-04-15T19:28:19.935Z,77.36
2023-04-15T19:33:23.427Z,78.21
2023-04-15T19:38:26.795Z,74.99
2023-04-15T19:43:33.318Z,72.84
2023-04-15T19:48:37.625Z,70.56
2023-04-15T19:53:41.951Z,68.64
2023-04-15T19:58:47.316Z,64.58
2023-04-15T20:03:54.076Z,64.17
2023-04-15T20:08:59.504Z,65.57
2023-04-15T20:14:03.441Z,62.72
2023-04-15T20:19:13.423Z,62.11
2023-04-15T20:24:17.299Z,61.70
2023-04-15T20:29:21.575Z,64.12
2023-04-15T20:34:25.568Z,71.36
2023-04-15T20:39:30.716Z,73.60
2023-04-15T20:44:35.751Z,76.52
2023-04-15T20:49:40.382Z,77.82
2023-04-15T20:54:45.001Z,78.06
2023-04-15T20:59:48.901Z,80.59
2023-04-15T21:04:52.389Z,80.35
2023-04-15T21:09:56.317Z,82.87
2023-04-15T21:15:00.530Z,83.24
2023-04-15T21:20:05.094Z,83.78
2023-04-15T21:25:09.948Z,84.67
2023-04-15T21:30:14.160Z,84.65
2023-04-15T21:35:18.530Z,85.49
2023-04-15T21:40:22.218Z,86.32
2023-04-15T21:45:26.317Z,85.73
2023-04-15T21:50:30.539Z,80.15
2023-04-15T21:55:34.016Z,77.87
2023-04-15T22:00:39.713Z,74.15
2023-04-15T22:05:46.830Z,72.93
2023-04-15T22:10:50.883Z,70.66
2023-04-15T22:15:54.665Z,70.71
2023-04-15T22:20:57.857Z,71.03
2023-04-15T22:26:01.269Z,71.14
2023-04-15T22:31:04.463Z,72.38
2023-04-15T22:36:08.024Z,72.01
2023-04-15T22:41:11.660Z,73.66
2023-04-15T22:46:15.376Z,73.54
2023-04-15T22:51:23.894Z,74.66
2023-04-15T22:56:27.478Z,74.99
2023-04-15T23:01:32.495Z,74.51
2023-04-15T23:06:36.114Z,74.91
2023-04-15T23:11:39.243Z,75.97
2023-04-15T23:16:43.567Z,75.66
2023-04-15T23:21:47.856Z,73.53
2023-04-15T23:26:53.392Z,74.42
2023-04-15T23:31:57.957Z,76.20
2023-04-15T23:37:01.582Z,78.91
2023-04-15T23:42:05.759Z,82.25
2023-04-15T23:47:09.558Z,83.47
2023-04-15T23:52:12.637Z,84.24
2023-04-15T23:57:16.753Z,77.42
